METAR AND TAF INFORMATION
METAR FOR LSGG
ADDS - METARS form results

(1629 UTC 05 June 2020)
Data provider http://aviationweather.gov/metar/data/
 
METAR text: LSGG 051620Z 27008KT 9999 -RA FEW015 BKN035 OVC045 14/09 Q1007 NOSIG
Conditions at: LSGG (GENEVA/COINTRIN , CH) observed 1620 UTC 05 June 2020
Temperature: 14.0°C (57°F)
Dewpoint: 9.0°C (48°F) [RH = 72%]
Pressure (altimeter): 29.73 inches Hg (1007.0 mb)
Winds: from the W (270 degrees) at 9 MPH (8 knots; 4.1 m/s)
Visibility: 6 or more miles (10+ km)
Ceiling: 3500 feet AGL
Clouds: few clouds at 1500 feet AGL
broken clouds at 3500 feet AGL
overcast cloud deck at 4500 feet AGL
Weather: -RA  (light rain)

METAR text: LSGG 051550Z 25010KT 9999 VCSH FEW015 BKN035 OVC045 14/09 Q1007 NOSIG
Conditions at: LSGG (GENEVA/COINTRIN , CH) observed 1550 UTC 05 June 2020
Temperature: 14.0°C (57°F)
Dewpoint: 9.0°C (48°F) [RH = 72%]
Pressure (altimeter): 29.73 inches Hg (1007.0 mb)
Winds: from the WSW (250 degrees) at 12 MPH (10 knots; 5.1 m/s)
Visibility: 6 or more miles (10+ km)
Ceiling: 3500 feet AGL
Clouds: few clouds at 1500 feet AGL
broken clouds at 3500 feet AGL
overcast cloud deck at 4500 feet AGL
Weather: VCSH  (showers in vicinity)

Forecast for: LSGG (GENEVA/COINTRIN , CH)
Text: TAF LSGG 051425Z 0515/0621 23012KT 9999 SCT030 BKN045 TX15/0515Z TN12/0605Z TX19/0615Z
Forecast period: 1500 UTC 05 June 2020 to 2100 UTC 06 June 2020
Forecast type: FROM: standard forecast or significant change
Winds: from the SW (230 degrees) at 14 MPH (12 knots; 6.2 m/s)
Visibility: 6 or more miles 10+ km)
Ceiling: 4500 feet AGL
Clouds: scattered clouds at 3000 feet AGL
broken clouds at 4500 feet AGL
Weather: no significant weather forecast for this period

 AIRPORT MAP

 RUNWAY INFORMATION
Runway 05 Runway length 12795 ft Runway width 164 ft
Runway elevation 1411 ft Runway displaced threshold 1082 ft Runway heading 46
Runway 23 Runway length 12795 ft Runway width 164 ft
Runway elevation 1365 ft Runway displaced threshold 0 ft Runway heading 226
Runway 05L Runway length 2700 ft Runway width 98 ft
Runway elevation 1378 ft Runway displaced threshold 613 ft Runway heading 46
Runway 23R Runway length 2700 ft Runway width 98 ft
Runway elevation 1393 ft Runway displaced threshold 994 ft Runway heading 226

 AIRPORT FREQUENCIES
Type APP Name APP Frequency 120.3 MHZ
Type ARR Name ARR Frequency 136.25 MHZ
Type ATIS Name ATIS Frequency 135.575 MHZ
Type DEP Name DEP Frequency 119.525 MHZ
Type GND Name GND Frequency 121.675 MHZ
Type GTE Name APN Frequency 121.75 MHZ
Type TWR Name TWR Frequency 118.7 MHZ

 AIRPORT NEAR NAVIGATION AIDS
Type NDB Name Gland Frequency 375 KHZ
Type VOR-DME Name Geneva Cointrin Frequency 115750 KHZ
Type VOR-DME Name Passeiry Frequency 116600 KHZ



Copyright © 2016 - 2020 - Smartbird VA, all rights reserved. Compagnie Aérienne Virtuelle

Powered by Virtual Airlines Manager [v2.6.2]